createdAt,value
2023-04-11T00:00:41.398Z,90.95
2023-04-11T00:01:41.536Z,91.61
2023-04-11T00:02:41.690Z,92.11
2023-04-11T00:03:41.701Z,92.63
2023-04-11T00:04:41.495Z,93.03
2023-04-11T00:05:41.364Z,93.33
2023-04-11T00:06:41.307Z,93.64
2023-04-11T00:07:41.346Z,94.09
2023-04-11T00:08:41.284Z,94.30
2023-04-11T00:09:41.316Z,94.50
2023-04-11T00:10:41.728Z,94.60
2023-04-11T00:11:41.267Z,94.81
2023-04-11T00:12:41.250Z,95.21
2023-04-11T00:13:41.238Z,95.32
2023-04-11T00:14:41.201Z,95.73
2023-04-11T00:15:41.235Z,96.03
2023-04-11T00:16:41.248Z,96.23
2023-04-11T00:17:41.214Z,96.34
2023-04-11T00:18:41.184Z,96.64
2023-04-11T00:19:41.166Z,96.75
2023-04-11T00:20:41.137Z,97.00
2023-04-11T00:21:41.148Z,97.30
2023-04-11T00:22:41.107Z,97.50
2023-04-11T00:23:41.127Z,97.71
2023-04-11T00:24:41.080Z,97.91
2023-04-11T00:25:41.098Z,97.91
2023-04-11T00:26:41.043Z,98.02
2023-04-11T00:27:41.069Z,98.02
2023-04-11T00:28:41.014Z,98.02
2023-04-11T00:29:41.050Z,98.11
2023-04-11T00:30:41.012Z,98.22
2023-04-11T00:31:41.098Z,98.11
2023-04-11T00:32:41.025Z,98.11
2023-04-11T00:33:41.205Z,98.11
2023-04-11T00:34:40.935Z,98.22
2023-04-11T00:35:41.030Z,98.43
2023-04-11T00:36:41.002Z,98.63
2023-04-11T00:37:40.909Z,98.77
2023-04-11T00:38:40.869Z,98.98
2023-04-11T00:39:40.904Z,99.08
2023-04-11T00:40:40.880Z,99.18
2023-04-11T00:41:40.892Z,99.29
2023-04-11T00:42:40.845Z,99.39
2023-04-11T00:43:40.830Z,99.59
2023-04-11T00:44:40.780Z,99.59
2023-04-11T00:45:40.994Z,99.69
2023-04-11T00:46:40.785Z,99.75
2023-04-11T00:47:40.791Z,99.85
2023-04-11T00:48:40.744Z,99.95
2023-04-11T00:49:40.746Z,99.99
2023-04-11T00:50:40.736Z,99.99
2023-04-11T00:51:40.736Z,99.99
2023-04-11T00:52:40.688Z,99.99
2023-04-11T00:53:40.712Z,99.99
2023-04-11T00:54:40.719Z,99.99
2023-04-11T00:55:40.683Z,99.99
2023-04-11T00:56:40.622Z,99.99
2023-04-11T00:57:40.637Z,99.99
2023-04-11T00:58:40.646Z,99.99
2023-04-11T00:59:40.626Z,99.99
2023-04-11T01:00:40.586Z,99.84
2023-04-11T01:01:40.628Z,99.64
2023-04-11T01:02:40.695Z,99.54
2023-04-11T01:03:40.640Z,98.82
2023-04-11T01:04:40.550Z,98.72
2023-04-11T01:05:40.509Z,98.56
2023-04-11T01:06:40.558Z,98.46
2023-04-11T01:07:40.515Z,98.46
2023-04-11T01:08:40.501Z,98.25
2023-04-11T01:09:40.482Z,98.25
2023-04-11T01:10:40.480Z,97.74
2023-04-11T01:11:40.427Z,97.44
2023-04-11T01:12:40.442Z,96.42
2023-04-11T01:13:40.430Z,96.11
2023-04-11T01:14:40.403Z,96.21
2023-04-11T01:15:40.414Z,95.70
2023-04-11T01:16:40.395Z,95.44
2023-04-11T01:17:40.383Z,95.23
2023-04-11T01:18:40.376Z,94.82
2023-04-11T01:19:40.335Z,94.42
2023-04-11T01:20:40.334Z,94.32
2023-04-11T01:21:40.286Z,94.11
2023-04-11T01:22:40.316Z,94.32
2023-04-11T01:23:40.300Z,94.15
2023-04-11T01:24:40.281Z,93.95
2023-04-11T01:25:40.258Z,93.85
2023-04-11T01:26:40.257Z,93.95
2023-04-11T01:27:40.213Z,94.06
2023-04-11T01:28:40.229Z,94.15
2023-04-11T01:29:40.208Z,94.26
2023-04-11T01:30:40.259Z,94.36
2023-04-11T01:31:40.153Z,94.15
2023-04-11T01:32:40.215Z,94.40
2023-04-11T01:33:40.158Z,94.60
2023-04-11T01:34:40.169Z,94.51
2023-04-11T01:35:40.144Z,94.71
2023-04-11T01:36:40.180Z,94.81
2023-04-11T01:37:40.106Z,94.71
2023-04-11T01:38:40.100Z,94.51
2023-04-11T01:39:40.048Z,94.40
2023-04-11T01:40:40.070Z,94.40
2023-04-11T01:41:40.053Z,94.92
2023-04-11T01:42:40.078Z,95.02
2023-04-11T01:43:40.004Z,95.22
2023-04-11T01:44:40.018Z,95.12
2023-04-11T01:45:39.968Z,94.92
2023-04-11T01:46:40.000Z,94.81
2023-04-11T01:47:39.984Z,94.92
2023-04-11T01:48:40.041Z,95.02
2023-04-11T01:49:39.918Z,95.02
2023-04-11T01:50:39.923Z,94.81
2023-04-11T01:51:39.893Z,94.92
2023-04-11T01:52:39.945Z,95.02
2023-04-11T01:53:39.881Z,95.18
2023-04-11T01:54:39.876Z,95.07
2023-04-11T01:55:39.830Z,95.07
2023-04-11T01:56:39.838Z,95.18
2023-04-11T01:57:39.838Z,94.97
2023-04-11T01:58:39.839Z,94.97
2023-04-11T01:59:39.773Z,95.22
2023-04-11T02:00:39.799Z,95.43
2023-04-11T02:01:39.811Z,95.73
2023-04-11T02:02:39.866Z,95.94
2023-04-11T02:03:39.834Z,96.45
2023-04-11T02:04:39.724Z,96.45
2023-04-11T02:05:39.796Z,96.66
2023-04-11T02:06:39.704Z,96.91
2023-04-11T02:07:39.673Z,97.00
2023-04-11T02:08:39.743Z,97.11
2023-04-11T02:09:39.656Z,97.41
2023-04-11T02:10:39.652Z,97.52
2023-04-11T02:11:39.629Z,97.62
2023-04-11T02:12:39.637Z,97.72
2023-04-11T02:13:39.611Z,97.82
2023-04-11T02:14:39.620Z,97.92
2023-04-11T02:15:39.586Z,98.13
2023-04-11T02:16:39.599Z,98.13
2023-04-11T02:17:39.596Z,98.13
2023-04-11T02:18:39.560Z,98.24
2023-04-11T02:19:39.505Z,98.44
2023-04-11T02:20:39.536Z,98.54
2023-04-11T02:21:39.499Z,98.54
2023-04-11T02:22:39.504Z,98.54
2023-04-11T02:23:39.482Z,98.54
2023-04-11T02:24:39.460Z,98.65
2023-04-11T02:25:39.429Z,98.74
2023-04-11T02:26:39.460Z,98.85
2023-04-11T02:27:39.427Z,98.74
2023-04-11T02:28:39.405Z,98.85
2023-04-11T02:29:39.408Z,98.85
2023-04-11T02:30:39.435Z,99.05
2023-04-11T02:31:39.414Z,99.05
2023-04-11T02:32:39.397Z,98.95
2023-04-11T02:33:39.328Z,99.05
2023-04-11T02:34:39.381Z,99.15
2023-04-11T02:35:39.320Z,99.15
2023-04-11T02:36:39.315Z,99.15
2023-04-11T02:37:39.271Z,99.26
2023-04-11T02:38:39.293Z,99.26
2023-04-11T02:39:39.241Z,99.26
2023-04-11T02:40:39.279Z,99.26
2023-04-11T02:41:39.201Z,99.36
2023-04-11T02:42:39.246Z,99.36
2023-04-11T02:43:39.210Z,99.26
2023-04-11T02:44:39.226Z,99.15
2023-04-11T02:45:39.188Z,99.26
2023-04-11T02:46:39.173Z,99.26
2023-04-11T02:47:39.174Z,99.36
2023-04-11T02:48:39.159Z,99.36
2023-04-11T02:49:39.112Z,99.36
2023-04-11T02:50:39.157Z,99.15
2023-04-11T02:51:39.124Z,98.85
2023-04-11T02:52:39.099Z,98.65
2023-04-11T02:53:39.061Z,98.74
2023-04-11T02:54:39.069Z,98.74
2023-04-11T02:55:39.022Z,98.74
2023-04-11T02:56:39.310Z,98.80
2023-04-11T02:57:39.008Z,98.80
2023-04-11T02:58:39.054Z,98.80
2023-04-11T02:59:38.995Z,98.80
2023-04-11T03:00:39.059Z,98.70
2023-04-11T03:01:39.198Z,98.80
2023-04-11T03:02:39.242Z,98.80
2023-04-11T03:03:39.029Z,98.70
2023-04-11T03:04:38.961Z,98.80
2023-04-11T03:05:38.910Z,98.95
2023-04-11T03:06:38.890Z,99.05
2023-04-11T03:07:38.889Z,99.15
2023-04-11T03:08:38.878Z,99.21
2023-04-11T03:09:38.855Z,99.21
2023-04-11T03:10:38.834Z,99.11
2023-04-11T03:11:38.842Z,99.11
2023-04-11T03:12:38.802Z,99.11
2023-04-11T03:13:38.829Z,99.31
2023-04-11T03:14:38.788Z,99.11
2023-04-11T03:15:38.811Z,99.15
2023-04-11T03:16:38.770Z,99.15
2023-04-11T03:17:38.781Z,99.36
2023-04-11T03:18:38.750Z,99.36
2023-04-11T03:19:38.738Z,99.36
2023-04-11T03:20:38.713Z,99.41
2023-04-11T03:21:38.710Z,99.41
2023-04-11T03:22:38.664Z,99.41
2023-04-11T03:23:38.742Z,99.41
2023-04-11T03:24:38.647Z,99.41
2023-04-11T03:25:38.667Z,99.41
2023-04-11T03:26:38.670Z,99.31
2023-04-11T03:27:38.629Z,99.36
2023-04-11T03:28:38.583Z,99.46
2023-04-11T03:29:38.647Z,99.46
2023-04-11T03:30:38.572Z,99.56
2023-04-11T03:31:38.619Z,99.56
2023-04-11T03:32:38.563Z,99.66
2023-04-11T03:33:38.568Z,99.56
2023-04-11T03:34:38.536Z,99.77
2023-04-11T03:35:38.540Z,99.77
2023-04-11T03:36:38.506Z,99.77
2023-04-11T03:37:38.515Z,99.87
2023-04-11T03:38:38.475Z,99.98
2023-04-11T03:39:38.487Z,99.98
2023-04-11T03:40:38.475Z,99.98
2023-04-11T03:41:38.437Z,99.99
2023-04-11T03:42:38.427Z,99.99
2023-04-11T03:43:38.406Z,99.99
2023-04-11T03:44:38.378Z,99.99
2023-04-11T03:45:38.409Z,99.99
2023-04-11T03:46:38.382Z,99.99
2023-04-11T03:47:38.427Z,99.98
2023-04-11T03:48:38.371Z,99.87
2023-04-11T03:49:38.395Z,99.77
2023-04-11T03:50:38.316Z,99.66
2023-04-11T03:51:38.316Z,99.56
2023-04-11T03:52:38.274Z,99.36
2023-04-11T03:53:38.300Z,99.26
2023-04-11T03:54:38.357Z,99.15
2023-04-11T03:55:38.256Z,99.05
2023-04-11T03:56:38.221Z,98.95
2023-04-11T03:57:38.227Z,98.85
2023-04-11T03:58:38.229Z,98.74
2023-04-11T03:59:38.227Z,98.74
2023-04-11T04:00:38.159Z,98.54
2023-04-11T04:01:38.363Z,98.38
2023-04-11T04:02:38.242Z,98.18
2023-04-11T04:03:38.509Z,98.38
2023-04-11T04:04:38.191Z,98.38
2023-04-11T04:05:38.106Z,98.18
2023-04-11T04:06:38.100Z,98.18
2023-04-11T04:07:38.106Z,98.18
2023-04-11T04:08:38.052Z,98.18
2023-04-11T04:09:38.110Z,98.28
2023-04-11T04:10:38.039Z,98.28
2023-04-11T04:11:38.041Z,97.97
2023-04-11T04:12:38.022Z,97.72
2023-04-11T04:13:38.012Z,97.52
2023-04-11T04:14:37.969Z,97.11
2023-04-11T04:15:38.004Z,97.00
2023-04-11T04:16:37.969Z,97.00
2023-04-11T04:17:38.006Z,96.70
2023-04-11T04:18:37.940Z,96.33
2023-04-11T04:19:37.932Z,96.03
2023-04-11T04:20:37.912Z,95.92
2023-04-11T04:21:37.913Z,95.82
2023-04-11T04:22:37.877Z,95.62
2023-04-11T04:23:37.901Z,95.31
2023-04-11T04:24:37.843Z,95.21
2023-04-11T04:25:37.856Z,95.21
2023-04-11T04:26:37.810Z,95.00
2023-04-11T04:27:37.818Z,94.75
2023-04-11T04:28:37.811Z,94.65
2023-04-11T04:29:37.831Z,94.39
2023-04-11T04:30:37.748Z,94.14
2023-04-11T04:31:37.855Z,93.98
2023-04-11T04:32:37.749Z,93.88
2023-04-11T04:33:37.766Z,93.98
2023-04-11T04:34:37.696Z,93.67
2023-04-11T04:35:37.747Z,93.67
2023-04-11T04:36:37.678Z,93.67
2023-04-11T04:37:37.693Z,93.47
2023-04-11T04:38:37.655Z,93.47
2023-04-11T04:39:37.708Z,93.67
2023-04-11T04:40:37.642Z,93.77
2023-04-11T04:41:37.644Z,93.26
2023-04-11T04:42:37.595Z,92.85
2023-04-11T04:43:37.618Z,92.85
2023-04-11T04:44:37.585Z,92.34
2023-04-11T04:45:37.684Z,92.14
2023-04-11T04:46:37.540Z,91.87
2023-04-11T04:47:37.624Z,91.67
2023-04-11T04:48:37.536Z,91.87
2023-04-11T04:49:37.541Z,91.87
2023-04-11T04:50:37.485Z,91.56
2023-04-11T04:51:37.508Z,91.56
2023-04-11T04:52:37.448Z,91.56
2023-04-11T04:53:37.483Z,91.87
2023-04-11T04:54:37.473Z,91.56
2023-04-11T04:55:37.472Z,90.99
2023-04-11T04:56:37.432Z,91.30
2023-04-11T04:57:37.417Z,91.71
2023-04-11T04:58:37.380Z,91.91
2023-04-11T04:59:37.396Z,92.43
2023-04-11T05:00:37.386Z,92.74
2023-04-11T05:01:37.448Z,93.45
2023-04-11T05:02:37.442Z,93.76
2023-04-11T05:03:37.568Z,93.80
2023-04-11T05:04:37.305Z,94.01
2023-04-11T05:05:37.343Z,94.32
2023-04-11T05:06:37.286Z,94.52
2023-04-11T05:07:37.288Z,94.73
2023-04-11T05:08:37.292Z,95.03
2023-04-11T05:09:37.256Z,95.54
2023-04-11T05:10:37.220Z,95.86
2023-04-11T05:11:37.225Z,95.95
2023-04-11T05:12:37.188Z,96.06
2023-04-11T05:13:37.249Z,96.26
2023-04-11T05:14:37.172Z,96.37
2023-04-11T05:15:37.181Z,96.26
2023-04-11T05:16:37.191Z,96.26
2023-04-11T05:17:37.167Z,96.26
2023-04-11T05:18:37.116Z,96.47
2023-04-11T05:19:37.128Z,96.26
2023-04-11T05:20:37.107Z,96.06
2023-04-11T05:21:37.126Z,96.06
2023-04-11T05:22:37.071Z,95.95
2023-04-11T05:23:37.079Z,95.75
2023-04-11T05:24:37.029Z,95.44
2023-04-11T05:25:37.073Z,95.44
2023-04-11T05:26:37.000Z,95.24
2023-04-11T05:27:37.097Z,95.03
2023-04-11T05:28:36.985Z,95.03
2023-04-11T05:29:37.007Z,95.14
2023-04-11T05:30:36.989Z,94.99
2023-04-11T05:31:36.981Z,94.99
2023-04-11T05:32:37.001Z,94.78
2023-04-11T05:33:36.956Z,94.78
2023-04-11T05:34:36.898Z,94.78
2023-04-11T05:35:36.962Z,94.52
2023-04-11T05:36:36.911Z,94.27
2023-04-11T05:37:36.880Z,94.11
2023-04-11T05:38:36.838Z,93.96
2023-04-11T05:39:36.881Z,93.86
2023-04-11T05:40:36.823Z,93.66
2023-04-11T05:41:36.840Z,93.70
2023-04-11T05:42:36.811Z,93.60
2023-04-11T05:43:36.811Z,93.70
2023-04-11T05:44:36.791Z,93.60
2023-04-11T05:45:36.819Z,93.70
2023-04-11T05:46:36.997Z,93.70
2023-04-11T05:47:36.782Z,93.39
2023-04-11T05:48:36.718Z,93.60
2023-04-11T05:49:36.758Z,93.66
2023-04-11T05:50:36.711Z,93.60
2023-04-11T05:51:36.692Z,93.39
2023-04-11T05:52:36.662Z,93.19
2023-04-11T05:53:36.701Z,93.39
2023-04-11T05:54:36.644Z,93.49
2023-04-11T05:55:36.644Z,93.55
2023-04-11T05:56:36.611Z,93.55
2023-04-11T05:57:36.623Z,93.35
2023-04-11T05:58:36.590Z,93.25
2023-04-11T05:59:36.635Z,92.98
2023-04-11T06:00:36.550Z,92.98
2023-04-11T06:01:36.625Z,93.19
2023-04-11T06:02:36.613Z,93.29
2023-04-11T06:03:36.753Z,93.29
2023-04-11T06:04:36.713Z,93.39
2023-04-11T06:05:36.507Z,93.49
2023-04-11T06:06:36.504Z,93.39
2023-04-11T06:07:36.496Z,93.29
2023-04-11T06:08:36.462Z,93.29
2023-04-11T06:09:36.525Z,93.08
2023-04-11T06:10:36.426Z,92.83
2023-04-11T06:11:36.454Z,92.74
2023-04-11T06:12:36.407Z,92.74
2023-04-11T06:13:36.424Z,92.63
2023-04-11T06:14:38.762Z,92.74
2023-04-11T06:15:36.446Z,92.53
2023-04-11T06:16:36.339Z,92.63
2023-04-11T06:17:36.413Z,92.63
2023-04-11T06:18:36.317Z,92.43
2023-04-11T06:19:36.352Z,92.43
2023-04-11T06:20:36.291Z,92.22
2023-04-11T06:21:36.294Z,92.43
2023-04-11T06:22:36.370Z,92.22
2023-04-11T06:23:36.297Z,91.91
2023-04-11T06:24:36.248Z,92.12
2023-04-11T06:25:36.248Z,92.12
2023-04-11T06:26:36.218Z,91.82
2023-04-11T06:27:36.217Z,91.91
2023-04-11T06:28:36.199Z,91.82
2023-04-11T06:29:36.194Z,91.71
2023-04-11T06:30:36.170Z,91.82
2023-04-11T06:31:36.214Z,91.71
2023-04-11T06:32:36.139Z,91.91
2023-04-11T06:33:36.167Z,91.40
2023-04-11T06:34:36.122Z,91.09
2023-04-11T06:35:36.183Z,90.99
2023-04-11T06:36:36.090Z,91.20
2023-04-11T06:37:36.101Z,91.20
2023-04-11T06:38:36.054Z,91.40
2023-04-11T06:39:36.169Z,91.71
2023-04-11T06:40:36.026Z,91.61
2023-04-11T06:41:36.069Z,91.61
2023-04-11T06:42:36.009Z,91.61
2023-04-11T06:43:36.010Z,90.99
2023-04-11T06:44:36.033Z,90.58
2023-04-11T06:45:35.974Z,90.37
2023-04-11T06:46:35.991Z,90.37
2023-04-11T06:47:35.993Z,90.28
2023-04-11T06:48:35.945Z,90.17
2023-04-11T06:49:35.937Z,90.48
2023-04-11T06:50:35.915Z,90.37
2023-04-11T06:51:35.924Z,90.48
2023-04-11T06:52:35.877Z,90.54
2023-04-11T06:53:35.880Z,90.64
2023-04-11T06:54:35.844Z,90.75
2023-04-11T06:55:35.853Z,90.54
2023-04-11T06:56:35.833Z,90.23
2023-04-11T06:57:35.829Z,90.54
2023-04-11T06:58:35.841Z,90.84
2023-04-11T06:59:35.795Z,90.54
2023-04-11T07:00:35.765Z,90.30
2023-04-11T07:01:35.856Z,90.19
2023-04-11T07:02:36.073Z,90.09
2023-04-11T07:03:35.873Z,90.30
2023-04-11T07:04:35.815Z,89.98
2023-04-11T07:05:37.528Z,89.89
2023-04-11T07:06:35.680Z,89.27
2023-04-11T07:07:35.742Z,89.06
2023-04-11T07:08:35.673Z,89.12
2023-04-11T07:09:35.676Z,89.03
2023-04-11T07:10:35.626Z,89.12
2023-04-11T07:11:35.654Z,88.51
2023-04-11T07:12:35.619Z,87.90
2023-04-11T07:13:35.641Z,87.70
2023-04-11T07:14:35.579Z,88.10
2023-04-11T07:15:35.629Z,88.47
2023-04-11T07:16:35.579Z,88.57
2023-04-11T07:17:35.628Z,87.76
2023-04-11T07:18:35.523Z,87.96
2023-04-11T07:19:35.568Z,87.45
2023-04-11T07:20:35.512Z,87.76
2023-04-11T07:21:35.506Z,87.55
2023-04-11T07:22:35.474Z,87.55
2023-04-11T07:23:35.476Z,87.85
2023-04-11T07:24:35.484Z,87.14
2023-04-11T07:25:35.477Z,86.63
2023-04-11T07:26:35.442Z,87.20
2023-04-11T07:27:35.403Z,87.10
2023-04-11T07:28:35.412Z,87.10
2023-04-11T07:29:35.373Z,87.16
2023-04-11T07:30:35.427Z,85.63
2023-04-11T07:31:35.354Z,84.20
2023-04-11T07:32:35.411Z,84.09
2023-04-11T07:33:35.334Z,84.30
2023-04-11T07:34:35.402Z,83.48
2023-04-11T07:35:35.318Z,84.30
2023-04-11T07:36:35.342Z,84.00
2023-04-11T07:37:35.267Z,83.79
2023-04-11T07:38:35.289Z,84.20
2023-04-11T07:39:35.252Z,84.61
2023-04-11T07:40:35.262Z,84.81
2023-04-11T07:41:35.207Z,84.26
2023-04-11T07:42:35.237Z,83.54
2023-04-11T07:43:35.213Z,84.42
2023-04-11T07:44:35.198Z,83.71
2023-04-11T07:45:35.161Z,82.69
2023-04-11T07:46:35.208Z,81.10
2023-04-11T07:47:35.173Z,81.10
2023-04-11T07:48:35.119Z,82.05
2023-04-11T07:49:35.088Z,80.73
2023-04-11T07:50:35.105Z,80.73
2023-04-11T07:51:35.136Z,81.95
2023-04-11T07:52:35.067Z,82.77
2023-04-11T07:53:35.050Z,83.38
2023-04-11T07:54:35.057Z,81.74
2023-04-11T07:55:35.021Z,80.83
2023-04-11T07:56:35.066Z,81.65
2023-04-11T07:57:34.999Z,81.54
2023-04-11T07:58:35.010Z,82.22
2023-04-11T07:59:34.965Z,80.99
2023-04-11T08:00:34.976Z,80.38
2023-04-11T08:01:34.961Z,80.07
2023-04-11T08:02:35.127Z,79.25
2023-04-11T08:03:35.137Z,78.95
2023-04-11T08:04:35.028Z,79.57
2023-04-11T08:05:34.897Z,78.64
2023-04-11T08:06:34.914Z,78.95
2023-04-11T08:07:34.831Z,78.95
2023-04-11T08:08:34.875Z,79.77
2023-04-11T08:09:34.840Z,79.05
2023-04-11T08:10:34.844Z,79.77
2023-04-11T08:11:34.820Z,79.57
2023-04-11T08:12:34.852Z,80.38
2023-04-11T08:13:34.770Z,79.97
2023-04-11T08:14:34.792Z,78.85
2023-04-11T08:15:34.748Z,79.57
2023-04-11T08:16:34.847Z,79.57
2023-04-11T08:17:34.814Z,80.07
2023-04-11T08:18:34.764Z,79.63
2023-04-11T08:19:34.708Z,79.63
2023-04-11T08:20:34.726Z,78.06
2023-04-11T08:21:34.700Z,78.57
2023-04-11T08:22:34.740Z,77.86
2023-04-11T08:23:34.673Z,77.55
2023-04-11T08:24:34.816Z,77.65
2023-04-11T08:25:34.634Z,77.75
2023-04-11T08:26:34.661Z,77.75
2023-04-11T08:27:34.585Z,78.06
2023-04-11T08:28:34.621Z,77.96
2023-04-11T08:29:34.578Z,77.25
2023-04-11T08:30:34.655Z,76.12
2023-04-11T08:31:34.540Z,74.18
2023-04-11T08:32:34.575Z,75.07
2023-04-11T08:33:34.552Z,73.94
2023-04-11T08:34:34.509Z,73.33
2023-04-11T08:35:34.556Z,73.33
2023-04-11T08:36:34.489Z,72.96
2023-04-11T08:37:34.467Z,72.96
2023-04-11T08:38:34.487Z,72.65
2023-04-11T08:39:34.417Z,72.65
2023-04-11T08:40:34.441Z,73.50
2023-04-11T08:41:34.405Z,73.57
2023-04-11T08:42:34.436Z,73.57
2023-04-11T08:43:34.371Z,72.96
2023-04-11T08:44:34.393Z,72.14
2023-04-11T08:45:34.377Z,72.55
2023-04-11T08:46:34.470Z,71.43
2023-04-11T08:47:34.350Z,71.80
2023-04-11T08:48:34.351Z,72.11
2023-04-11T08:49:34.284Z,71.91
2023-04-11T08:50:34.294Z,71.77
2023-04-11T08:51:34.312Z,69.93
2023-04-11T08:52:34.279Z,70.95
2023-04-11T08:53:34.264Z,72.28
2023-04-11T08:54:34.262Z,71.26
2023-04-11T08:55:34.205Z,70.14
2023-04-11T08:56:34.236Z,70.85
2023-04-11T08:57:34.184Z,70.95
2023-04-11T08:58:34.233Z,71.77
2023-04-11T08:59:34.154Z,71.97
2023-04-11T09:00:34.268Z,71.06
2023-04-11T09:01:34.327Z,70.41
2023-04-11T09:02:34.286Z,72.14
2023-04-11T09:03:34.139Z,71.80
2023-04-11T09:04:34.106Z,71.39
2023-04-11T09:05:34.064Z,70.07
2023-04-11T09:06:34.085Z,68.57
2023-04-11T09:07:34.039Z,68.78
2023-04-11T09:08:34.078Z,68.17
2023-04-11T09:09:34.024Z,67.96
2023-04-11T09:10:34.020Z,67.59
2023-04-11T09:11:33.988Z,67.79
2023-04-11T09:12:34.028Z,67.49
2023-04-11T09:13:33.986Z,67.96
2023-04-11T09:14:34.218Z,67.96
2023-04-11T09:15:33.945Z,67.86
2023-04-11T09:16:33.981Z,67.73
2023-04-11T09:17:33.946Z,68.85
2023-04-11T09:18:33.978Z,67.52
2023-04-11T09:19:33.944Z,66.00
2023-04-11T09:20:33.908Z,66.50
2023-04-11T09:21:33.851Z,66.82
2023-04-11T09:22:33.877Z,67.73
2023-04-11T09:23:33.842Z,66.30
2023-04-11T09:24:35.337Z,67.32
2023-04-11T09:25:33.822Z,67.63
2023-04-11T09:26:33.824Z,67.02
2023-04-11T09:27:33.820Z,66.61
2023-04-11T09:28:33.779Z,66.94
2023-04-11T09:29:33.789Z,66.64
2023-04-11T09:30:33.782Z,67.15
2023-04-11T09:31:33.819Z,65.75
2023-04-11T09:32:33.928Z,65.75
2023-04-11T09:33:33.699Z,66.27
2023-04-11T09:34:33.747Z,66.67
2023-04-11T09:35:33.727Z,66.88
2023-04-11T09:36:33.692Z,66.47
2023-04-11T09:37:33.632Z,66.16
2023-04-11T09:38:33.662Z,66.06
2023-04-11T09:39:33.638Z,66.74
2023-04-11T09:40:33.650Z,66.94
2023-04-11T09:41:33.597Z,65.42
2023-04-11T09:42:33.617Z,64.20
2023-04-11T09:43:33.561Z,64.40
2023-04-11T09:44:33.606Z,64.09
2023-04-11T09:45:40.969Z,64.60
2023-04-11T09:46:33.621Z,64.90
2023-04-11T09:47:33.543Z,64.63
2023-04-11T09:48:46.119Z,63.71
2023-04-11T09:49:33.493Z,63.68
2023-04-11T09:50:33.511Z,63.79
2023-04-11T09:51:37.036Z,62.43
2023-04-11T09:52:33.488Z,63.35
2023-04-11T09:53:33.433Z,63.76
2023-04-11T09:54:33.486Z,63.56
2023-04-11T09:55:33.412Z,62.74
2023-04-11T09:56:33.436Z,62.63
2023-04-11T09:57:33.381Z,63.56
2023-04-11T09:58:33.390Z,64.47
2023-04-11T09:59:33.378Z,63.56
2023-04-11T10:00:33.367Z,64.47
2023-04-11T10:01:33.472Z,65.22
2023-04-11T10:02:33.474Z,65.69
2023-04-11T10:03:33.341Z,64.47
2023-04-11T10:04:33.349Z,64.67
2023-04-11T10:05:33.264Z,65.89
2023-04-11T10:06:33.302Z,66.30
2023-04-11T10:07:33.273Z,66.91
2023-04-11T10:08:33.301Z,67.02
2023-04-11T10:09:33.229Z,66.41
2023-04-11T10:10:33.227Z,65.97
2023-04-11T10:11:33.188Z,65.49
2023-04-11T10:12:33.227Z,65.59
2023-04-11T10:13:33.206Z,64.26
2023-04-11T10:14:33.168Z,65.69
2023-04-11T10:15:33.138Z,66.41
2023-04-11T10:16:33.190Z,66.30
2023-04-11T10:17:33.114Z,66.20
2023-04-11T10:18:33.135Z,64.90
2023-04-11T10:19:33.067Z,65.42
2023-04-11T10:20:33.106Z,66.30
2023-04-11T10:21:33.192Z,66.91
2023-04-11T10:22:33.069Z,66.91
2023-04-11T10:23:33.021Z,66.41
2023-04-11T10:24:33.046Z,66.30
2023-04-11T10:25:33.015Z,66.50
2023-04-11T10:26:33.021Z,67.39
2023-04-11T10:27:32.998Z,66.91
2023-04-11T10:28:32.975Z,66.41
2023-04-11T10:29:32.990Z,65.80
2023-04-11T10:30:32.981Z,66.30
2023-04-11T10:31:32.961Z,67.08
2023-04-11T10:32:32.959Z,65.56
2023-04-11T10:33:32.883Z,65.46
2023-04-11T10:34:32.921Z,65.16
2023-04-11T10:35:32.900Z,64.84
2023-04-11T10:36:32.884Z,66.44
2023-04-11T10:37:32.868Z,65.53
2023-04-11T10:38:32.865Z,65.12
2023-04-11T10:39:32.819Z,65.12
2023-04-11T10:40:32.826Z,63.29
2023-04-11T10:41:32.831Z,61.76
2023-04-11T10:42:32.787Z,63.39
2023-04-11T10:43:32.773Z,62.78
2023-04-11T10:44:32.761Z,61.87
2023-04-11T10:45:32.740Z,62.78
2023-04-11T10:46:32.775Z,62.48
2023-04-11T10:47:32.715Z,62.58
2023-04-11T10:48:32.724Z,61.97
2023-04-11T10:49:32.660Z,62.65
2023-04-11T10:50:32.713Z,61.94
2023-04-11T10:51:32.731Z,62.14
2023-04-11T10:52:32.672Z,61.74
2023-04-11T10:53:32.625Z,61.63
2023-04-11T10:54:32.627Z,61.63
2023-04-11T10:55:32.585Z,60.82
2023-04-11T10:56:32.666Z,60.92
2023-04-11T10:57:32.571Z,61.43
2023-04-11T10:58:32.577Z,61.53
2023-04-11T10:59:32.552Z,60.52
2023-04-11T11:00:32.688Z,61.02
2023-04-11T11:01:42.822Z,59.60
2023-04-11T11:02:32.641Z,59.50
2023-04-11T11:03:32.633Z,59.19
2023-04-11T11:04:32.723Z,59.91
2023-04-11T11:05:32.466Z,59.70
2023-04-11T11:06:32.982Z,59.50
2023-04-11T11:07:32.414Z,59.42
2023-04-11T11:08:32.505Z,59.93
2023-04-11T11:09:32.428Z,59.42
2023-04-11T11:10:32.415Z,60.03
2023-04-11T11:11:32.364Z,60.24
2023-04-11T11:12:32.390Z,60.95
2023-04-11T11:13:32.350Z,61.36
2023-04-11T11:14:32.391Z,61.02
2023-04-11T11:15:32.310Z,60.85
2023-04-11T11:16:32.384Z,60.54
2023-04-11T11:17:32.375Z,61.13
2023-04-11T11:18:32.320Z,61.63
2023-04-11T11:19:32.296Z,60.61
2023-04-11T11:20:32.279Z,60.52
2023-04-11T11:21:32.238Z,59.19
2023-04-11T11:22:32.243Z,59.50
2023-04-11T11:23:32.229Z,59.70
2023-04-11T11:24:32.258Z,59.77
2023-04-11T11:25:32.190Z,58.99
2023-04-11T11:26:32.202Z,58.89
2023-04-11T11:27:32.152Z,59.30
2023-04-11T11:28:32.191Z,60.11
2023-04-11T11:29:32.174Z,60.11
2023-04-11T11:30:32.148Z,60.52
2023-04-11T11:31:32.124Z,60.61
2023-04-11T11:32:32.157Z,59.80
2023-04-11T11:33:32.102Z,60.21
2023-04-11T11:34:32.125Z,59.70
2023-04-11T11:35:32.072Z,58.58
2023-04-11T11:36:32.126Z,58.89
2023-04-11T11:37:32.021Z,59.39
2023-04-11T11:38:32.064Z,58.17
2023-04-11T11:39:32.029Z,57.67
2023-04-11T11:40:32.014Z,58.25
2023-04-11T11:41:31.993Z,58.78
2023-04-11T11:42:31.959Z,57.67
2023-04-11T11:43:31.978Z,57.06
2023-04-11T11:44:31.951Z,57.59
2023-04-11T11:45:31.997Z,57.79
2023-04-11T11:46:31.970Z,58.10
2023-04-11T11:47:31.964Z,58.20
2023-04-11T11:48:31.873Z,58.51
2023-04-11T11:49:31.908Z,58.92
2023-04-11T11:50:31.869Z,59.63
2023-04-11T11:51:31.898Z,60.03
2023-04-11T11:52:31.817Z,59.01
2023-04-11T11:53:31.854Z,58.92
2023-04-11T11:54:31.796Z,59.01
2023-04-11T11:55:31.817Z,59.63
2023-04-11T11:56:31.762Z,59.32
2023-04-11T11:57:31.789Z,59.01
2023-04-11T11:58:31.754Z,59.22
2023-04-11T11:59:31.766Z,59.83
2023-04-11T12:00:31.737Z,59.42
2023-04-11T12:01:31.725Z,60.34
2023-04-11T12:02:31.812Z,59.12
2023-04-11T12:03:31.820Z,59.73
2023-04-11T12:04:31.856Z,60.00
2023-04-11T12:05:31.748Z,61.02
2023-04-11T12:06:31.646Z,60.89
2023-04-11T12:07:31.637Z,61.30
2023-04-11T12:08:31.631Z,60.99
2023-04-11T12:09:31.621Z,60.99
2023-04-11T12:10:31.577Z,59.27
2023-04-11T12:11:31.602Z,60.08
2023-04-11T12:12:31.591Z,59.57
2023-04-11T12:13:31.578Z,59.77
2023-04-11T12:14:31.562Z,59.27
2023-04-11T12:15:31.577Z,59.37
2023-04-11T12:16:31.591Z,59.27
2023-04-11T12:17:31.585Z,59.47
2023-04-11T12:18:31.477Z,59.67
2023-04-11T12:19:31.484Z,58.45
2023-04-11T12:20:31.459Z,57.95
2023-04-11T12:21:31.483Z,57.95
2023-04-11T12:22:31.442Z,57.34
2023-04-11T12:23:31.417Z,57.95
2023-04-11T12:24:31.422Z,58.56
2023-04-11T12:25:31.389Z,58.35
2023-04-11T12:26:31.391Z,58.56
2023-04-11T12:27:31.401Z,58.15
2023-04-11T12:28:31.344Z,58.25
2023-04-11T12:29:31.348Z,58.04
2023-04-11T12:30:31.323Z,58.35
2023-04-11T12:31:31.377Z,58.25
2023-04-11T12:32:31.290Z,57.43
2023-04-11T12:33:31.289Z,56.42
2023-04-11T12:34:31.267Z,57.03
2023-04-11T12:35:31.285Z,55.60
2023-04-11T12:37:31.245Z,55.68
2023-04-11T12:38:31.207Z,56.19
2023-04-11T12:39:31.239Z,55.88
2023-04-11T12:40:31.193Z,55.68
2023-04-11T12:41:32.648Z,55.88
2023-04-11T12:42:31.453Z,55.68
2023-04-11T12:43:31.162Z,54.57
2023-04-11T12:44:31.133Z,54.26
2023-04-11T12:45:31.134Z,54.66
2023-04-11T12:46:31.183Z,54.87
2023-04-11T12:47:31.170Z,55.25
2023-04-11T12:48:31.109Z,54.64
2023-04-11T12:49:31.114Z,54.94
2023-04-11T12:50:31.079Z,55.76
2023-04-11T12:51:31.053Z,56.67
2023-04-11T12:52:31.017Z,56.87
2023-04-11T12:53:31.065Z,58.40